createdAt,value
2023-02-06T00:00:39.379Z,0.99
2023-02-06T00:01:39.380Z,1.04
2023-02-06T00:02:39.418Z,1.05
2023-02-06T00:03:39.448Z,1.04
2023-02-06T00:04:39.432Z,1.04
2023-02-06T00:05:39.592Z,1.02
2023-02-06T00:06:39.494Z,1.01
2023-02-06T00:07:39.485Z,0.95
2023-02-06T00:08:39.545Z,0.96
2023-02-06T00:09:39.514Z,0.94
2023-02-06T00:10:39.547Z,0.96
2023-02-06T00:11:39.559Z,1.04
2023-02-06T00:12:39.575Z,0.98
2023-02-06T00:13:39.612Z,0.99
2023-02-06T00:14:39.617Z,0.96
2023-02-06T00:15:39.891Z,0.96
2023-02-06T00:16:39.655Z,0.96
2023-02-06T00:17:39.664Z,0.94
2023-02-06T00:18:39.714Z,0.95
2023-02-06T00:19:39.700Z,0.94
2023-02-06T00:20:39.712Z,0.91
2023-02-06T00:21:39.728Z,0.86
2023-02-06T00:22:39.755Z,0.84
2023-02-06T00:23:39.796Z,0.91
2023-02-06T00:24:39.788Z,0.84
2023-02-06T00:25:39.800Z,0.81
2023-02-06T00:26:39.825Z,0.81
2023-02-06T00:27:39.846Z,0.78
2023-02-06T00:28:39.882Z,0.77
2023-02-06T00:29:39.873Z,0.74
2023-02-06T00:30:39.961Z,0.69
2023-02-06T00:31:39.978Z,0.70
2023-02-06T00:32:39.971Z,0.74
2023-02-06T00:33:39.967Z,0.70
2023-02-06T00:34:39.966Z,0.68
2023-02-06T00:35:39.984Z,0.69
2023-02-06T00:36:40.007Z,0.69
2023-02-06T00:37:40.021Z,0.70
2023-02-06T00:38:40.070Z,0.73
2023-02-06T00:39:40.064Z,0.73
2023-02-06T00:40:40.097Z,0.70
2023-02-06T00:41:40.107Z,0.70
2023-02-06T00:42:40.132Z,0.68
2023-02-06T00:43:40.174Z,0.69
2023-02-06T00:44:40.160Z,0.66
2023-02-06T00:45:40.174Z,0.66
2023-02-06T00:46:40.201Z,0.62
2023-02-06T00:47:40.210Z,0.65
2023-02-06T00:48:40.273Z,0.65
2023-02-06T00:49:40.256Z,0.63
2023-02-06T00:50:40.276Z,0.62
2023-02-06T00:51:40.291Z,0.60
2023-02-06T00:52:40.318Z,0.62
2023-02-06T00:53:40.363Z,0.59
2023-02-06T00:54:40.357Z,0.58
2023-02-06T00:55:40.369Z,0.58
2023-02-06T00:56:40.393Z,0.58
2023-02-06T00:57:40.407Z,0.56
2023-02-06T00:58:40.458Z,0.58
2023-02-06T00:59:40.438Z,0.56
2023-02-06T01:00:40.468Z,0.56
2023-02-06T01:01:40.502Z,0.59
2023-02-06T01:02:40.536Z,0.58
2023-02-06T01:03:40.541Z,0.59
2023-02-06T01:04:40.544Z,0.58
2023-02-06T01:05:40.565Z,0.56
2023-02-06T01:06:40.593Z,0.58
2023-02-06T01:07:40.601Z,0.55
2023-02-06T01:08:40.649Z,0.52
2023-02-06T01:09:40.636Z,0.50
2023-02-06T01:10:40.662Z,0.50
2023-02-06T01:11:40.674Z,0.49
2023-02-06T01:12:40.702Z,0.46
2023-02-06T01:13:40.746Z,0.47
2023-02-06T01:14:40.742Z,0.49
2023-02-06T01:15:40.769Z,0.50
2023-02-06T01:16:40.780Z,0.52
2023-02-06T01:17:40.783Z,0.52
2023-02-06T01:18:40.847Z,0.50
2023-02-06T01:19:40.826Z,0.52
2023-02-06T01:20:40.855Z,0.52
2023-02-06T01:21:40.858Z,0.55
2023-02-06T01:22:40.883Z,0.52
2023-02-06T01:23:41.079Z,0.55
2023-02-06T01:24:40.917Z,0.50
2023-02-06T01:25:40.932Z,0.49
2023-02-06T01:26:40.950Z,0.49
2023-02-06T01:27:40.989Z,0.47
2023-02-06T01:28:40.978Z,0.46
2023-02-06T01:29:41.007Z,0.43
2023-02-06T01:30:41.081Z,0.43
2023-02-06T01:31:41.067Z,0.44
2023-02-06T01:32:41.050Z,0.44
2023-02-06T01:33:41.056Z,0.44
2023-02-06T01:34:41.101Z,0.44
2023-02-06T01:35:41.093Z,0.41
2023-02-06T01:36:41.124Z,0.40
2023-02-06T01:37:41.139Z,0.40
2023-02-06T01:38:41.164Z,0.41
2023-02-06T01:39:41.192Z,0.43
2023-02-06T01:40:41.202Z,0.41
2023-02-06T01:41:41.204Z,0.41
2023-02-06T01:42:41.229Z,0.43
2023-02-06T01:43:41.241Z,0.41
2023-02-06T01:44:41.277Z,0.39
2023-02-06T01:45:41.272Z,0.39
2023-02-06T01:46:41.400Z,0.40
2023-02-06T01:47:41.311Z,0.36
2023-02-06T01:48:41.335Z,0.37
2023-02-06T01:49:41.370Z,0.37
2023-02-06T01:50:41.367Z,0.39
2023-02-06T01:51:41.378Z,0.37
2023-02-06T01:52:41.402Z,0.37
2023-02-06T01:53:41.425Z,0.36
2023-02-06T01:54:41.470Z,0.32
2023-02-06T01:55:41.460Z,0.31
2023-02-06T01:56:41.477Z,0.31
2023-02-06T01:57:41.491Z,0.31
2023-02-06T01:58:41.511Z,0.32
2023-02-06T01:59:41.538Z,0.32
2023-02-06T02:00:41.543Z,0.28
2023-02-06T02:01:41.589Z,0.29
2023-02-06T02:02:41.581Z,0.32
2023-02-06T02:03:41.596Z,0.34
2023-02-06T02:04:41.632Z,0.36
2023-02-06T02:05:41.626Z,0.36
2023-02-06T02:06:41.648Z,0.37
2023-02-06T02:07:41.663Z,0.37
2023-02-06T02:08:41.683Z,0.39
2023-02-06T02:09:41.725Z,0.40
2023-02-06T02:10:41.717Z,0.39
2023-02-06T02:11:41.731Z,0.39
2023-02-06T02:12:41.760Z,0.39
2023-02-06T02:13:41.776Z,0.40
2023-02-06T02:14:41.814Z,0.40
2023-02-06T02:15:41.804Z,0.41
2023-02-06T02:16:41.825Z,0.40
2023-02-06T02:17:41.844Z,0.39
2023-02-06T02:18:41.870Z,0.39
2023-02-06T02:19:41.898Z,0.39
2023-02-06T02:20:41.908Z,0.39
2023-02-06T02:21:41.916Z,0.32
2023-02-06T02:22:41.945Z,0.32
2023-02-06T02:23:41.964Z,0.34
2023-02-06T02:24:41.995Z,0.34
2023-02-06T02:25:42.009Z,0.31
2023-02-06T02:26:42.018Z,0.31
2023-02-06T02:27:42.025Z,0.29
2023-02-06T02:28:42.050Z,0.31
2023-02-06T02:29:42.087Z,0.26
2023-02-06T02:30:42.145Z,0.22
2023-02-06T02:31:42.210Z,0.23
2023-02-06T02:32:42.134Z,0.26
2023-02-06T02:33:42.144Z,0.23
2023-02-06T02:34:42.189Z,0.22
2023-02-06T02:35:42.189Z,0.16
2023-02-06T02:36:42.214Z,0.12
2023-02-06T02:37:42.225Z,0.07
2023-02-06T02:38:42.245Z,0.05
2023-02-06T02:39:42.276Z,0.00
2023-02-06T02:40:42.277Z,-0.03
2023-02-06T02:41:42.288Z,-0.08
2023-02-06T02:42:42.309Z,-0.10
2023-02-06T02:43:42.317Z,-0.07
2023-02-06T02:44:42.351Z,-0.07
2023-02-06T02:45:42.381Z,-0.07
2023-02-06T02:46:42.369Z,-0.07
2023-02-06T02:47:42.371Z,-0.07
2023-02-06T02:48:42.396Z,-0.02
2023-02-06T02:49:42.418Z,-0.03
2023-02-06T02:50:42.555Z,-0.03
2023-02-06T02:51:42.425Z,-0.03
2023-02-06T02:52:42.447Z,-0.02
2023-02-06T02:53:42.454Z,0.01
2023-02-06T02:54:42.490Z,-0.03
2023-02-06T02:55:42.480Z,-0.03
2023-02-06T02:56:42.505Z,-0.08
2023-02-06T02:57:42.520Z,-0.08
2023-02-06T02:58:42.531Z,-0.10
2023-02-06T02:59:42.568Z,-0.10
2023-02-06T03:00:42.612Z,-0.11
2023-02-06T03:01:42.574Z,-0.11
2023-02-06T03:02:42.595Z,-0.13
2023-02-06T03:03:42.608Z,-0.11
2023-02-06T03:04:42.647Z,-0.13
2023-02-06T03:05:42.643Z,-0.10
2023-02-06T03:06:42.674Z,-0.11
2023-02-06T03:07:42.675Z,-0.17
2023-02-06T03:08:42.698Z,-0.20
2023-02-06T03:09:45.612Z,-0.18
2023-02-06T03:10:42.731Z,-0.17
2023-02-06T03:11:42.747Z,-0.15
2023-02-06T03:12:42.765Z,-0.15
2023-02-06T03:13:42.779Z,-0.17
2023-02-06T03:14:42.823Z,-0.18
2023-02-06T03:15:42.812Z,-0.20
2023-02-06T03:16:42.861Z,-0.20
2023-02-06T03:17:42.842Z,-0.20
2023-02-06T03:18:42.867Z,-0.18
2023-02-06T03:19:42.896Z,-0.17
2023-02-06T03:20:42.903Z,-0.18
2023-02-06T03:21:42.929Z,-0.21
2023-02-06T03:22:42.932Z,-0.23
2023-02-06T03:23:42.945Z,-0.26
2023-02-06T03:24:42.985Z,-0.25
2023-02-06T03:25:42.983Z,-0.26
2023-02-06T03:26:42.999Z,-0.29
2023-02-06T03:27:43.035Z,-0.26
2023-02-06T03:28:43.045Z,-0.23
2023-02-06T03:29:43.076Z,-0.21
2023-02-06T03:30:43.117Z,-0.23
2023-02-06T03:31:43.136Z,-0.20
2023-02-06T03:32:43.124Z,-0.23
2023-02-06T03:33:43.116Z,-0.23
2023-02-06T03:34:43.154Z,-0.18
2023-02-06T03:35:43.147Z,-0.18
2023-02-06T03:36:43.167Z,-0.18
2023-02-06T03:37:43.171Z,-0.21
2023-02-06T03:38:43.184Z,-0.23
2023-02-06T03:39:43.222Z,-0.23
2023-02-06T03:40:43.219Z,-0.21
2023-02-06T03:41:43.234Z,-0.31
2023-02-06T03:42:43.256Z,-0.31
2023-02-06T03:43:43.264Z,-0.28
2023-02-06T03:44:43.300Z,-0.29
2023-02-06T03:45:43.345Z,-0.39
2023-02-06T03:46:43.306Z,-0.41
2023-02-06T03:47:43.318Z,-0.43
2023-02-06T03:48:43.337Z,-0.41
2023-02-06T03:49:43.369Z,-0.39
2023-02-06T03:50:43.371Z,-0.38
2023-02-06T03:51:43.384Z,-0.36
2023-02-06T03:52:43.403Z,-0.32
2023-02-06T03:53:43.416Z,-0.32
2023-02-06T03:54:43.472Z,-0.36
2023-02-06T03:55:43.444Z,-0.38
2023-02-06T03:56:43.462Z,-0.38
2023-02-06T03:57:43.548Z,-0.36
2023-02-06T03:58:43.504Z,-0.38
2023-02-06T03:59:43.526Z,-0.41
2023-02-06T04:00:43.531Z,-0.43
2023-02-06T04:01:43.537Z,-0.47
2023-02-06T04:02:43.636Z,-0.52
2023-02-06T04:03:43.576Z,-0.52
2023-02-06T04:04:43.609Z,-0.52
2023-02-06T04:05:43.600Z,-0.59
2023-02-06T04:06:43.621Z,-0.62
2023-02-06T04:07:43.634Z,-0.70
2023-02-06T04:08:43.647Z,-0.70
2023-02-06T04:09:43.698Z,-0.70
2023-02-06T04:10:43.713Z,-0.75
2023-02-06T04:11:43.696Z,-0.78
2023-02-06T04:12:43.714Z,-0.78
2023-02-06T04:13:43.727Z,-0.82
2023-02-06T04:14:43.770Z,-0.80
2023-02-06T04:15:43.755Z,-0.80
2023-02-06T04:16:43.812Z,-0.83
2023-02-06T04:17:58.933Z,-0.85
2023-02-06T04:18:43.808Z,-0.90
2023-02-06T04:19:43.827Z,-0.89
2023-02-06T04:20:43.826Z,-0.91
2023-02-06T04:21:43.848Z,-0.93
2023-02-06T04:22:43.864Z,-0.96
2023-02-06T04:23:43.878Z,-0.99
2023-02-06T04:24:43.923Z,-1.01
2023-02-06T04:25:43.906Z,-0.99
2023-02-06T04:26:43.927Z,-1.01
2023-02-06T04:27:43.989Z,-1.02
2023-02-06T04:28:43.952Z,-1.05
2023-02-06T04:29:43.991Z,-1.09
2023-02-06T04:30:44.095Z,-1.11
2023-02-06T04:31:44.012Z,-1.12
2023-02-06T04:32:44.014Z,-1.14
2023-02-06T04:33:44.030Z,-1.15
2023-02-06T04:34:44.071Z,-1.15
2023-02-06T04:35:44.056Z,-1.15
2023-02-06T04:36:44.077Z,-1.15
2023-02-06T04:37:44.088Z,-1.20
2023-02-06T04:38:44.109Z,-1.23
2023-02-06T04:39:44.146Z,-1.25
2023-02-06T04:40:44.138Z,-1.26
2023-02-06T04:41:44.155Z,-1.27
2023-02-06T04:42:44.167Z,-1.27
2023-02-06T04:43:44.184Z,-1.27
2023-02-06T04:44:44.229Z,-1.26
2023-02-06T04:45:44.231Z,-1.27
2023-02-06T04:46:44.234Z,-1.29
2023-02-06T04:47:44.251Z,-1.33
2023-02-06T04:48:44.275Z,-1.38
2023-02-06T04:49:44.305Z,-1.43
2023-02-06T04:50:44.309Z,-1.47
2023-02-06T04:51:44.323Z,-1.53
2023-02-06T04:52:44.343Z,-1.62
2023-02-06T04:53:44.369Z,-1.64
2023-02-06T04:54:44.402Z,-1.65
2023-02-06T04:55:44.383Z,-1.66
2023-02-06T04:56:44.406Z,-1.68
2023-02-06T04:57:44.423Z,-1.69
2023-02-06T04:58:44.432Z,-1.72
2023-02-06T04:59:44.465Z,-1.74
2023-02-06T05:00:44.462Z,-1.74
2023-02-06T05:01:44.490Z,-1.79
2023-02-06T05:02:44.545Z,-1.79
2023-02-06T05:03:44.488Z,-1.80
2023-02-06T05:04:44.527Z,-1.79
2023-02-06T05:05:44.523Z,-1.76
2023-02-06T05:06:44.533Z,-1.76
2023-02-06T05:07:44.538Z,-1.76
2023-02-06T05:08:44.562Z,-1.76
2023-02-06T05:09:44.586Z,-1.77
2023-02-06T05:10:44.612Z,-1.79
2023-02-06T05:11:44.599Z,-1.79
2023-02-06T05:12:44.624Z,-1.80
2023-02-06T05:13:44.630Z,-1.79
2023-02-06T05:14:44.672Z,-1.79
2023-02-06T05:15:44.727Z,-1.72
2023-02-06T05:16:44.682Z,-1.68
2023-02-06T05:17:44.699Z,-1.64
2023-02-06T05:18:44.707Z,-1.61
2023-02-06T05:19:44.750Z,-1.61
2023-02-06T05:20:44.743Z,-1.61
2023-02-06T05:21:44.757Z,-1.61
2023-02-06T05:22:44.779Z,-1.62
2023-02-06T05:23:44.795Z,-1.68
2023-02-06T05:24:44.825Z,-1.74
2023-02-06T05:25:44.862Z,-1.83
2023-02-06T05:26:44.847Z,-1.86
2023-02-06T05:27:44.871Z,-1.92
2023-02-06T05:28:44.865Z,-2.00
2023-02-06T05:29:44.880Z,-2.04
2023-02-06T05:30:44.937Z,-2.08
2023-02-06T05:31:44.960Z,-2.12
2023-02-06T05:32:44.923Z,-2.12
2023-02-06T05:33:44.929Z,-2.12
2023-02-06T05:34:44.952Z,-2.10
2023-02-06T05:35:44.958Z,-2.12
2023-02-06T05:36:44.981Z,-2.16
2023-02-06T05:37:44.988Z,-2.23
2023-02-06T05:38:45.009Z,-2.28
2023-02-06T05:39:45.013Z,-2.32
2023-02-06T05:40:45.049Z,-2.34
2023-02-06T05:41:45.046Z,-2.30
2023-02-06T05:42:45.070Z,-2.28
2023-02-06T05:43:45.087Z,-2.26
2023-02-06T05:44:45.121Z,-2.25
2023-02-06T05:45:45.107Z,-2.25
2023-02-06T05:46:45.127Z,-2.21
2023-02-06T05:47:45.148Z,-2.16
2023-02-06T05:48:45.171Z,-2.16
2023-02-06T05:49:45.196Z,-2.18
2023-02-06T05:50:45.202Z,-2.21
2023-02-06T05:51:45.231Z,-2.25
2023-02-06T05:52:45.223Z,-2.28
2023-02-06T05:53:45.236Z,-2.28
2023-02-06T05:54:45.281Z,-2.28
2023-02-06T05:55:45.273Z,-2.30
2023-02-06T05:56:45.308Z,-2.30
2023-02-06T05:57:45.308Z,-2.32
2023-02-06T05:58:45.330Z,-2.32
2023-02-06T05:59:45.355Z,-2.23
2023-02-06T06:00:45.379Z,-2.21
2023-02-06T06:01:45.372Z,-2.19
2023-02-06T06:02:45.381Z,-2.16
2023-02-06T06:03:45.421Z,-2.16
2023-02-06T06:04:45.464Z,-2.18
2023-02-06T06:05:45.427Z,-2.23
2023-02-06T06:06:45.443Z,-2.25
2023-02-06T06:07:45.456Z,-2.32
2023-02-06T06:08:45.481Z,-2.38
2023-02-06T06:09:45.509Z,-2.42
2023-02-06T06:10:45.511Z,-2.42
2023-02-06T06:11:45.532Z,-2.44
2023-02-06T06:12:45.547Z,-2.48
2023-02-06T06:13:45.553Z,-2.52
2023-02-06T06:14:45.602Z,-2.53
2023-02-06T06:15:45.659Z,-2.53
2023-02-06T06:16:45.603Z,-2.56
2023-02-06T06:17:45.613Z,-2.60
2023-02-06T06:18:45.628Z,-2.62
2023-02-06T06:19:45.654Z,-2.60
2023-02-06T06:20:45.659Z,-2.59
2023-02-06T06:21:45.664Z,-2.48
2023-02-06T06:22:45.700Z,-2.40
2023-02-06T06:23:45.692Z,-2.34
2023-02-06T06:24:45.733Z,-2.34
2023-02-06T06:25:45.723Z,-2.38
2023-02-06T06:26:45.745Z,-2.42
2023-02-06T06:27:45.813Z,-2.44
2023-02-06T06:28:45.765Z,-2.45
2023-02-06T06:29:45.800Z,-2.47
2023-02-06T06:30:45.832Z,-2.48
2023-02-06T06:31:45.891Z,-2.48
2023-02-06T06:32:45.838Z,-2.53
2023-02-06T06:33:45.848Z,-2.56
2023-02-06T06:34:45.909Z,-2.52
2023-02-06T06:35:45.869Z,-2.45
2023-02-06T06:36:45.894Z,-2.40
2023-02-06T06:37:45.900Z,-2.42
2023-02-06T06:38:45.929Z,-2.48
2023-02-06T06:39:45.958Z,-2.48
2023-02-06T06:40:45.945Z,-2.47
2023-02-06T06:41:45.956Z,-2.41
2023-02-06T06:42:45.980Z,-2.37
2023-02-06T06:43:45.983Z,-2.38
2023-02-06T06:44:46.024Z,-2.34
2023-02-06T06:45:46.100Z,-2.35
2023-02-06T06:46:46.032Z,-2.52
2023-02-06T06:47:46.042Z,-2.66
2023-02-06T06:48:46.060Z,-2.76
2023-02-06T06:49:46.102Z,-2.77
2023-02-06T06:50:46.088Z,-2.78
2023-02-06T06:51:46.117Z,-2.81
2023-02-06T06:52:46.125Z,-2.81
2023-02-06T06:53:46.134Z,-2.77
2023-02-06T06:54:46.173Z,-2.76
2023-02-06T06:55:46.162Z,-2.77
2023-02-06T06:56:46.180Z,-2.80
2023-02-06T06:57:46.196Z,-2.84
2023-02-06T06:58:46.219Z,-2.84
2023-02-06T06:59:46.376Z,-2.89
2023-02-06T07:00:46.325Z,-2.88
2023-02-06T07:01:46.258Z,-2.89
2023-02-06T07:02:46.313Z,-2.91
2023-02-06T07:03:46.294Z,-2.89
2023-02-06T07:04:46.342Z,-2.86
2023-02-06T07:05:46.330Z,-2.86
2023-02-06T07:06:46.349Z,-2.86
2023-02-06T07:07:46.372Z,-2.81
2023-02-06T07:08:46.382Z,-2.84
2023-02-06T07:09:46.426Z,-2.81
2023-02-06T07:10:46.412Z,-2.80
2023-02-06T07:11:46.435Z,-2.76
2023-02-06T07:12:46.441Z,-2.69
2023-02-06T07:13:46.464Z,-2.60
2023-02-06T07:14:46.502Z,-2.55
2023-02-06T07:15:46.491Z,-2.52
2023-02-06T07:16:46.592Z,-2.47
2023-02-06T07:17:46.527Z,-2.44
2023-02-06T07:18:46.556Z,-2.47
2023-02-06T07:19:46.580Z,-2.44
2023-02-06T07:20:46.574Z,-2.38
2023-02-06T07:21:46.589Z,-2.35
2023-02-06T07:22:46.601Z,-2.30
2023-02-06T07:23:46.618Z,-2.22
2023-02-06T07:24:46.645Z,-2.22
2023-02-06T07:25:46.640Z,-2.25
2023-02-06T07:26:46.652Z,-2.25
2023-02-06T07:27:46.681Z,-2.19
2023-02-06T07:28:46.678Z,-2.16
2023-02-06T07:29:46.721Z,-2.10
2023-02-06T07:30:46.778Z,-2.04
2023-02-06T07:31:46.833Z,-2.02
2023-02-06T07:32:46.744Z,-2.00
2023-02-06T07:33:46.751Z,-1.98
2023-02-06T07:34:46.786Z,-1.95
2023-02-06T07:35:46.790Z,-1.98
2023-02-06T07:36:46.805Z,-2.00
2023-02-06T07:37:46.834Z,-2.01
2023-02-06T07:38:46.839Z,-2.05
2023-02-06T07:39:46.874Z,-2.08
2023-02-06T07:40:46.950Z,-2.12
2023-02-06T07:41:46.889Z,-2.16
2023-02-06T07:42:46.955Z,-2.18
2023-02-06T07:43:46.923Z,-2.16
2023-02-06T07:44:46.951Z,-2.16
2023-02-06T07:45:46.971Z,-2.16
2023-02-06T07:46:46.976Z,-2.13
2023-02-06T07:47:46.996Z,-2.07
2023-02-06T07:48:46.997Z,-2.07
2023-02-06T07:49:47.041Z,-2.04
2023-02-06T07:50:47.034Z,-2.04
2023-02-06T07:51:47.050Z,-2.01
2023-02-06T07:52:47.061Z,-2.02
2023-02-06T07:53:47.085Z,-2.02
2023-02-06T07:54:47.119Z,-2.02
2023-02-06T07:55:47.129Z,-2.02
2023-02-06T07:56:47.128Z,-2.02
2023-02-06T07:57:47.145Z,-2.00
2023-02-06T07:58:47.173Z,-2.00
2023-02-06T07:59:47.200Z,-2.00
2023-02-06T08:00:47.190Z,-2.00
2023-02-06T08:01:47.211Z,-1.97
2023-02-06T08:02:47.220Z,-1.97
2023-02-06T08:03:47.241Z,-1.95
2023-02-06T08:04:47.314Z,-1.94
2023-02-06T08:05:47.271Z,-1.95
2023-02-06T08:06:47.277Z,-1.89
2023-02-06T08:07:47.304Z,-1.80
2023-02-06T08:08:47.333Z,-1.77
2023-02-06T08:09:47.354Z,-1.76
2023-02-06T08:10:47.335Z,-1.71
2023-02-06T08:11:47.356Z,-1.74
2023-02-06T08:12:47.377Z,-1.72
2023-02-06T08:13:47.392Z,-1.69
2023-02-06T08:14:47.422Z,-1.65
2023-02-06T08:15:47.447Z,-1.62
2023-02-06T08:16:47.447Z,-1.61
2023-02-06T08:17:47.455Z,-1.62
2023-02-06T08:18:47.466Z,-1.61
2023-02-06T08:19:47.508Z,-1.58
2023-02-06T08:20:47.507Z,-1.54
2023-02-06T08:21:47.522Z,-1.51
2023-02-06T08:22:47.532Z,-1.48
2023-02-06T08:23:47.552Z,-1.46
2023-02-06T08:24:47.580Z,-1.44
2023-02-06T08:25:47.583Z,-1.40
2023-02-06T08:26:47.589Z,-1.41
2023-02-06T08:27:47.634Z,-1.37
2023-02-06T08:28:47.624Z,-1.33
2023-02-06T08:29:48.684Z,-1.33
2023-02-06T08:30:47.744Z,-1.30
2023-02-06T08:31:47.705Z,-1.27
2023-02-06T08:32:47.687Z,-1.23
2023-02-06T08:33:47.723Z,-1.20
2023-02-06T08:34:47.737Z,-1.15
2023-02-06T08:35:47.736Z,-1.08
2023-02-06T08:36:47.887Z,-1.05
2023-02-06T08:37:47.769Z,-1.04
2023-02-06T08:38:47.791Z,-0.99
2023-02-06T08:39:47.826Z,-0.94
2023-02-06T08:40:47.812Z,-0.91
2023-02-06T08:41:47.832Z,-0.89
2023-02-06T08:42:47.840Z,-0.82
2023-02-06T08:43:47.869Z,-0.80
2023-02-06T08:44:47.891Z,-0.78
2023-02-06T08:45:47.908Z,-0.82
2023-02-06T08:46:47.926Z,-0.80
2023-02-06T08:47:47.911Z,-0.83
2023-02-06T08:48:47.915Z,-0.86
2023-02-06T08:49:47.959Z,-0.93
2023-02-06T08:50:47.945Z,-0.91
2023-02-06T08:51:47.974Z,-0.85
2023-02-06T08:52:47.973Z,-0.85
2023-02-06T08:53:47.992Z,-0.86
2023-02-06T08:54:48.027Z,-0.86
2023-02-06T08:55:48.030Z,-0.93
2023-02-06T08:56:48.037Z,-0.85
2023-02-06T08:57:48.060Z,-0.80
2023-02-06T08:58:48.077Z,-0.80
2023-02-06T08:59:48.118Z,-0.78
2023-02-06T09:00:48.109Z,-0.75
2023-02-06T09:01:48.243Z,-0.70
2023-02-06T09:02:48.235Z,-0.62
2023-02-06T09:03:48.165Z,-0.50
2023-02-06T09:04:48.192Z,-0.49
2023-02-06T09:05:48.187Z,-0.47
2023-02-06T09:06:48.191Z,-0.47
2023-02-06T09:07:48.222Z,-0.47
2023-02-06T09:08:48.231Z,-0.44
2023-02-06T09:09:48.276Z,-0.41
2023-02-06T09:10:48.256Z,-0.47
2023-02-06T09:11:48.274Z,-0.46
2023-02-06T09:12:48.292Z,-0.46
2023-02-06T09:13:49.377Z,-0.44
2023-02-06T09:14:48.337Z,-0.44
2023-02-06T09:15:48.383Z,-0.43
2023-02-06T09:16:48.352Z,-0.39
2023-02-06T09:17:48.389Z,-0.36
2023-02-06T09:18:48.382Z,-0.43
2023-02-06T09:19:48.424Z,-0.39
2023-02-06T09:20:48.401Z,-0.41
2023-02-06T09:21:48.431Z,-0.43
2023-02-06T09:22:48.433Z,-0.49
2023-02-06T09:23:48.453Z,-0.50
2023-02-06T09:24:48.477Z,-0.52
2023-02-06T09:25:48.471Z,-0.46
2023-02-06T09:27:03.759Z,-0.36
2023-02-06T09:27:48.528Z,-0.28
2023-02-06T09:28:48.506Z,-0.21
2023-02-06T09:29:48.553Z,-0.21
2023-02-06T09:30:48.682Z,-0.20
2023-02-06T09:31:48.635Z,-0.17
2023-02-06T09:32:48.573Z,-0.13
2023-02-06T09:33:48.620Z,-0.10
2023-02-06T09:34:49.279Z,-0.08
2023-02-06T09:35:48.603Z,-0.06
2023-02-06T09:36:48.608Z,-0.06
2023-02-06T09:37:48.632Z,-0.07
2023-02-06T09:38:48.637Z,-0.06
2023-02-06T09:39:48.675Z,-0.03
2023-02-06T09:40:48.667Z,-0.08
2023-02-06T09:41:48.681Z,-0.15
2023-02-06T09:42:48.688Z,-0.15
2023-02-06T09:43:48.708Z,-0.13
2023-02-06T09:44:48.736Z,-0.08
2023-02-06T09:45:48.736Z,0.00
2023-02-06T09:46:48.747Z,0.04
2023-02-06T09:47:48.770Z,0.00
2023-02-06T09:48:48.789Z,0.01
2023-02-06T09:49:48.827Z,0.05
2023-02-06T09:50:48.819Z,0.11
2023-02-06T09:51:48.844Z,0.18
2023-02-06T09:52:48.859Z,0.18
2023-02-06T09:53:48.881Z,0.21
2023-02-06T09:54:48.906Z,0.26
2023-02-06T09:55:48.911Z,0.25
2023-02-06T09:56:48.913Z,0.26
2023-02-06T09:57:48.957Z,0.29
2023-02-06T09:58:48.954Z,0.25
2023-02-06T09:59:48.992Z,0.26
2023-02-06T10:00:48.992Z,0.25
2023-02-06T10:01:49.064Z,0.23
2023-02-06T10:02:49.032Z,0.19
2023-02-06T10:03:49.131Z,0.22
2023-02-06T10:04:49.085Z,0.29
2023-02-06T10:05:49.163Z,0.34
2023-02-06T10:06:49.096Z,0.29
2023-02-06T10:07:49.128Z,0.34
2023-02-06T10:08:49.138Z,0.40
2023-02-06T10:09:49.174Z,0.46
2023-02-06T10:10:49.169Z,0.50
2023-02-06T10:11:49.189Z,0.41
2023-02-06T10:12:49.208Z,0.43
2023-02-06T10:13:49.223Z,0.47
2023-02-06T10:14:49.256Z,0.55
2023-02-06T10:15:49.319Z,0.55
2023-02-06T10:16:49.267Z,0.56
2023-02-06T10:17:49.289Z,0.58
2023-02-06T10:18:49.300Z,0.46
2023-02-06T10:19:49.355Z,0.39
2023-02-06T10:20:49.339Z,0.39
2023-02-06T10:21:49.364Z,0.43
2023-02-06T10:22:49.383Z,0.44
2023-02-06T10:23:49.406Z,0.46
2023-02-06T10:24:49.438Z,0.41
2023-02-06T10:25:49.436Z,0.32
2023-02-06T10:26:49.452Z,0.32
2023-02-06T10:27:49.486Z,0.32
2023-02-06T10:28:49.484Z,0.32
2023-02-06T10:29:49.536Z,0.37
2023-02-06T10:30:49.548Z,0.41
2023-02-06T10:31:49.565Z,0.36
2023-02-06T10:32:49.555Z,0.34
2023-02-06T10:33:49.591Z,0.31
2023-02-06T10:34:49.610Z,0.28
2023-02-06T10:35:49.618Z,0.36
2023-02-06T10:36:49.634Z,0.41
2023-02-06T10:37:49.665Z,0.41
2023-02-06T10:38:49.672Z,0.36
2023-02-06T10:39:49.713Z,0.40
2023-02-06T10:40:49.707Z,0.43
2023-02-06T10:41:49.744Z,0.32
2023-02-06T10:42:49.741Z,0.22
2023-02-06T10:43:49.768Z,0.22
2023-02-06T10:44:51.508Z,0.21
2023-02-06T10:45:49.805Z,0.12
2023-02-06T10:46:49.858Z,0.11
2023-02-06T10:47:49.882Z,0.15
2023-02-06T10:48:49.848Z,0.12
2023-02-06T10:49:49.883Z,0.19
2023-02-06T10:50:49.876Z,0.18
2023-02-06T10:51:49.940Z,0.16
2023-02-06T10:52:49.914Z,0.16
2023-02-06T10:53:49.942Z,0.12
2023-02-06T10:54:49.972Z,0.15
2023-02-06T10:55:50.437Z,0.18
2023-02-06T10:56:49.988Z,0.23
2023-02-06T10:57:50.014Z,0.21
2023-02-06T10:58:50.014Z,0.19
2023-02-06T10:59:51.337Z,0.18
2023-02-06T11:00:50.100Z,0.03
2023-02-06T11:01:50.101Z,0.04
2023-02-06T11:03:01.357Z,0.10
2023-02-06T11:03:50.104Z,0.16
2023-02-06T11:04:50.130Z,0.21
2023-02-06T11:05:50.142Z,0.26
2023-02-06T11:06:50.200Z,0.28
2023-02-06T11:07:50.176Z,0.31
2023-02-06T11:08:50.188Z,0.31
2023-02-06T11:09:50.238Z,0.34
2023-02-06T11:10:50.230Z,0.34
2023-02-06T11:11:50.245Z,0.39
2023-02-06T11:12:50.255Z,0.39
2023-02-06T11:13:50.296Z,0.32
2023-02-06T11:14:50.314Z,0.31
2023-02-06T11:15:50.321Z,0.28
2023-02-06T11:16:50.342Z,0.29
2023-02-06T11:17:50.364Z,0.23
2023-02-06T11:18:50.372Z,0.23
2023-02-06T11:19:50.418Z,0.23
2023-02-06T11:20:50.436Z,0.22
2023-02-06T11:21:50.430Z,0.22
2023-02-06T11:22:52.953Z,0.21
2023-02-06T11:23:50.460Z,0.23
2023-02-06T11:24:50.505Z,0.31
2023-02-06T11:25:50.498Z,0.31
2023-02-06T11:26:50.519Z,0.50
2023-02-06T11:27:50.580Z,0.59
2023-02-06T11:28:50.556Z,0.44
2023-02-06T11:29:52.211Z,0.40
2023-02-06T11:30:50.644Z,0.40
2023-02-06T11:31:50.637Z,0.40
2023-02-06T11:33:03.724Z,0.40
2023-02-06T11:33:50.660Z,0.41
2023-02-06T11:34:50.690Z,0.39
2023-02-06T11:35:50.683Z,0.43
2023-02-06T11:36:50.705Z,0.44
2023-02-06T11:37:50.724Z,0.31
2023-02-06T11:38:50.739Z,0.26
2023-02-06T11:39:50.799Z,0.19
2023-02-06T11:40:50.780Z,0.25
2023-02-06T11:41:50.796Z,0.25
2023-02-06T11:42:50.821Z,0.25
2023-02-06T11:43:50.835Z,0.29
2023-02-06T11:44:50.886Z,0.36
2023-02-06T11:45:50.892Z,0.34
2023-02-06T11:46:50.891Z,0.44
2023-02-06T11:47:50.901Z,0.56
2023-02-06T11:48:50.925Z,0.60
2023-02-06T11:49:50.966Z,0.62
2023-02-06T11:50:50.981Z,0.66
2023-02-06T11:51:50.974Z,0.70
2023-02-06T11:52:50.997Z,0.63
2023-02-06T11:53:51.004Z,0.60
2023-02-06T11:54:51.054Z,0.52
2023-02-06T11:55:51.046Z,0.52
2023-02-06T11:56:51.067Z,0.47
2023-02-06T11:57:51.079Z,0.46
2023-02-06T11:58:51.099Z,0.40
2023-02-06T11:59:51.144Z,0.31
2023-02-06T12:00:51.138Z,0.32
2023-02-06T12:01:51.223Z,0.31
2023-02-06T12:02:51.176Z,0.29
2023-02-06T12:03:51.197Z,0.31
2023-02-06T12:04:51.242Z,0.29
2023-02-06T12:05:51.224Z,0.28
2023-02-06T12:06:51.249Z,0.21
2023-02-06T12:07:51.257Z,0.18
2023-02-06T12:08:51.307Z,0.21
2023-02-06T12:09:51.317Z,0.19
2023-02-06T12:10:51.328Z,0.19
2023-02-06T12:11:51.349Z,0.23
2023-02-06T12:12:51.360Z,0.26
2023-02-06T12:13:51.380Z,0.34
2023-02-06T12:14:51.437Z,0.39
2023-02-06T12:15:51.780Z,0.43
2023-02-06T12:16:51.471Z,0.43
2023-02-06T12:17:51.449Z,0.40
2023-02-06T12:18:51.468Z,0.36
2023-02-06T12:19:51.507Z,0.31
2023-02-06T12:20:51.502Z,0.36
2023-02-06T12:21:51.549Z,0.41
2023-02-06T12:22:51.548Z,0.41
2023-02-06T12:23:51.549Z,0.40
2023-02-06T12:24:51.595Z,0.40
2023-02-06T12:25:51.590Z,0.39
2023-02-06T12:26:51.612Z,0.40
2023-02-06T12:27:51.715Z,0.43
2023-02-06T12:28:51.650Z,0.39
2023-02-06T12:29:51.699Z,0.34
2023-02-06T12:30:51.786Z,0.34
2023-02-06T12:31:51.848Z,0.32
2023-02-06T12:32:51.725Z,0.32
2023-02-06T12:33:54.712Z,0.31
2023-02-06T12:34:51.784Z,0.26
2023-02-06T12:35:51.773Z,0.23
2023-02-06T12:36:51.793Z,0.15
2023-02-06T12:37:51.812Z,0.07
2023-02-06T12:38:51.840Z,-0.03
2023-02-06T12:39:51.875Z,0.03
2023-02-06T12:40:51.866Z,0.07
2023-02-06T12:41:51.872Z,0.16
2023-02-06T12:42:51.899Z,0.10
2023-02-06T12:43:51.906Z,0.12
2023-02-06T12:44:51.966Z,0.21
2023-02-06T12:45:51.980Z,0.22
2023-02-06T12:46:51.969Z,0.22
2023-02-06T12:47:51.977Z,0.28
2023-02-06T12:48:52.003Z,0.32
2023-02-06T12:49:52.051Z,0.37
2023-02-06T12:50:52.044Z,0.40
2023-02-06T12:51:52.063Z,0.43
2023-02-06T12:52:52.090Z,0.44
2023-02-06T12:53:52.097Z,0.37
2023-02-06T12:54:52.138Z,0.29
2023-02-06T12:55:52.128Z,0.26
2023-02-06T12:56:52.161Z,0.25
2023-02-06T12:57:52.172Z,0.22
2023-02-06T12:58:52.187Z,0.26
2023-02-06T12:59:58.002Z,0.28
2023-02-06T13:00:52.233Z,0.12
2023-02-06T13:01:52.287Z,0.05
2023-02-06T13:02:52.300Z,0.10
2023-02-06T13:03:52.281Z,0.18
2023-02-06T13:04:52.328Z,0.19